Time;durP1;ratioP1;P1;durP2;ratioP2;P2;SDS_P1;SDS_P2;PMS_P1;PMS_P2;Temp;Humidity;BMP_temperature;BMP_pressure;BME280_temperature;BME280_humidity;BME280_pressure;Samples;Min_cycle;Max_cycle;Signal;HPM_P1;HPM_P2
2023/06/27 00:01:15;;;;;;;9.97;5.17;;;;;;;;;;5099351;28;20332;-81
2023/06/27 00:03:41;;;;;;;9.20;4.70;;;;;;;;;;5098278;28;20292;-81
2023/06/27 00:06:06;;;;;;;6.20;4.18;;;;;;;;;;5096305;28;20277;-81
2023/06/27 00:08:32;;;;;;;8.13;4.20;;;;;;;;;;5098127;28;20563;-81
2023/06/27 00:10:57;;;;;;;6.65;4.05;;;;;;;;;;5098052;28;20300;-81
2023/06/27 00:13:23;;;;;;;9.73;4.88;;;;;;;;;;5099203;28;20422;-81
2023/06/27 00:15:52;;;;;;;9.00;5.15;;;;;;;;;;5098407;28;20084;-81
2023/06/27 00:18:17;;;;;;;9.18;4.93;;;;;;;;;;5096657;28;20035;-81
2023/06/27 00:20:43;;;;;;;9.40;5.15;;;;;;;;;;5096653;28;20019;-81
2023/06/27 00:23:24;;;;;;;8.48;4.70;;;;;;;;;;5098205;28;20040;-81
2023/06/27 00:25:50;;;;;;;6.00;4.25;;;;;;;;;;5098243;28;20024;-81
2023/06/27 00:28:15;;;;;;;7.75;4.13;;;;;;;;;;5096697;28;20031;-81
2023/06/27 00:30:40;;;;;;;9.30;4.80;;;;;;;;;;5097866;28;20020;-81
2023/06/27 00:33:06;;;;;;;7.53;4.95;;;;;;;;;;5098331;28;20332;-81
2023/06/27 00:35:32;;;;;;;9.43;4.63;;;;;;;;;;5096462;28;20076;-81
2023/06/27 00:38:07;;;;;;;6.50;4.63;;;;;;;;;;5098041;28;20028;-81
2023/06/27 00:40:32;;;;;;;7.90;5.05;;;;;;;;;;5097543;28;20034;-81
2023/06/27 00:42:57;;;;;;;7.53;4.37;;;;;;;;;;5097586;28;20099;-81
2023/06/27 00:45:23;;;;;;;7.53;4.87;;;;;;;;;;5097458;28;20276;-81
2023/06/27 00:47:51;;;;;;;8.63;4.60;;;;;;;;;;5095849;28;20253;-81
2023/06/27 00:50:17;;;;;;;7.22;4.53;;;;;;;;;;5097780;28;20047;-81
2023/06/27 00:52:43;;;;;;;9.88;4.72;;;;;;;;;;5097920;28;20483;-81
2023/06/27 00:55:09;;;;;;;12.40;4.65;;;;;;;;;;5097663;28;20031;-81
2023/06/27 00:57:35;;;;;;;10.00;5.45;;;;;;;;;;5097491;28;20084;-81
2023/06/27 01:00:00;;;;;;;10.27;5.32;;;;;;;;;;5096311;28;20081;-81
2023/06/27 01:02:25;;;;;;;10.90;6.07;;;;;;;;;;5097997;28;20433;-82
2023/06/27 01:04:53;;;;;;;11.15;5.85;;;;;;;;;;5095257;28;20558;-81
2023/06/27 01:07:29;;;;;;;9.98;6.00;;;;;;;;;;5097307;28;20485;-81
2023/06/27 01:10:03;;;;;;;11.10;6.00;;;;;;;;;;5097781;28;20027;-81
2023/06/27 01:12:42;;;;;;;8.05;5.75;;;;;;;;;;5096807;28;20024;-81
2023/06/27 01:15:08;;;;;;;10.80;5.82;;;;;;;;;;5096245;28;20040;-81
2023/06/27 01:17:35;;;;;;;8.93;5.70;;;;;;;;;;5095830;28;20032;-81
2023/06/27 01:20:01;;;;;;;9.98;5.30;;;;;;;;;;5096781;28;20121;-81
2023/06/27 01:22:32;;;;;;;9.70;5.32;;;;;;;;;;5096193;28;20020;-83
2023/06/27 01:24:59;;;;;;;7.97;5.53;;;;;;;;;;5096641;28;20174;-82
2023/06/27 01:27:28;;;;;;;11.77;6.18;;;;;;;;;;5096012;28;20028;-80
2023/06/27 01:29:54;;;;;;;8.95;4.85;;;;;;;;;;5096839;28;20024;-82
2023/06/27 01:32:42;;;;;;;9.80;5.32;;;;;;;;;;5096989;28;20081;-80
2023/06/27 01:35:12;;;;;;;8.75;4.57;;;;;;;;;;5097774;28;20394;-82
2023/06/27 01:37:52;;;;;;;8.98;5.00;;;;;;;;;;5095935;28;20020;-81
2023/06/27 01:40:20;;;;;;;8.63;5.28;;;;;;;;;;5096780;28;20030;-81
2023/06/27 01:42:49;;;;;;;8.35;5.43;;;;;;;;;;5096823;28;20027;-81
2023/06/27 01:45:17;;;;;;;7.07;4.90;;;;;;;;;;5096428;28;20398;-81
2023/06/27 01:47:44;;;;;;;11.50;5.30;;;;;;;;;;5096887;28;20023;-81
2023/06/27 01:50:11;;;;;;;9.30;5.32;;;;;;;;;;5096828;28;20024;-81
2023/06/27 01:52:36;;;;;;;17.45;6.57;;;;;;;;;;5096823;28;20032;-81
2023/06/27 01:55:01;;;;;;;10.38;4.95;;;;;;;;;;5096541;28;20032;-81
2023/06/27 01:57:27;;;;;;;10.97;4.93;;;;;;;;;;5096747;28;20016;-81
2023/06/27 01:59:52;;;;;;;8.55;5.15;;;;;;;;;;5096994;28;20289;-80
2023/06/27 02:02:18;;;;;;;6.95;5.00;;;;;;;;;;5097002;28;20386;-82
2023/06/27 02:04:43;;;;;;;9.80;4.55;;;;;;;;;;5096691;28;20081;-82
2023/06/27 02:07:09;;;;;;;6.30;4.95;;;;;;;;;;5096321;28;20020;-82
2023/06/27 02:09:34;;;;;;;7.40;4.00;;;;;;;;;;5095673;28;20024;-82
2023/06/27 02:11:59;;;;;;;8.02;4.45;;;;;;;;;;5096819;28;20131;-81
2023/06/27 02:14:24;;;;;;;14.57;4.80;;;;;;;;;;5096706;28;20024;-82
2023/06/27 02:16:50;;;;;;;12.90;4.75;;;;;;;;;;5096415;28;20260;-82
2023/06/27 02:19:15;;;;;;;9.37;4.93;;;;;;;;;;5096939;28;20083;-82
2023/06/27 02:21:40;;;;;;;7.23;4.23;;;;;;;;;;5094908;28;20738;-82
2023/06/27 02:24:05;;;;;;;15.32;5.13;;;;;;;;;;5096904;28;20264;-82
2023/06/27 02:26:31;;;;;;;7.15;4.07;;;;;;;;;;5096372;28;20063;-82
2023/06/27 02:28:56;;;;;;;9.23;3.93;;;;;;;;;;5098953;28;20027;-82
2023/06/27 02:31:22;;;;;;;10.27;4.30;;;;;;;;;;5100936;28;20288;-82
2023/06/27 02:33:47;;;;;;;10.85;4.70;;;;;;;;;;5098558;28;20781;-82
2023/06/27 02:36:13;;;;;;;10.73;4.40;;;;;;;;;;5099987;28;20194;-82
2023/06/27 02:38:38;;;;;;;8.88;3.95;;;;;;;;;;5098424;28;20287;-81
2023/06/27 02:41:03;;;;;;;9.13;4.53;;;;;;;;;;5099147;28;20016;-81
2023/06/27 02:43:28;;;;;;;8.27;4.07;;;;;;;;;;5100596;28;20338;-82
2023/06/27 02:45:54;;;;;;;4.77;3.63;;;;;;;;;;5100631;28;20265;-81
2023/06/27 02:48:19;;;;;;;11.38;3.78;;;;;;;;;;5099771;28;20317;-81
2023/06/27 02:50:49;;;;;;;6.70;3.20;;;;;;;;;;5100266;28;20024;-81
2023/06/27 02:53:14;;;;;;;7.28;3.28;;;;;;;;;;5098742;28;20706;-82
2023/06/27 02:55:39;;;;;;;7.25;3.50;;;;;;;;;;5099901;28;20028;-81
2023/06/27 02:58:04;;;;;;;9.90;3.53;;;;;;;;;;5099757;28;20030;-82
2023/06/27 03:00:30;;;;;;;13.13;3.87;;;;;;;;;;5100211;28;20320;-81
2023/06/27 03:02:55;;;;;;;5.87;3.67;;;;;;;;;;5100042;28;20295;-81
2023/06/27 03:05:20;;;;;;;10.23;4.43;;;;;;;;;;5100203;28;20255;-81
2023/06/27 03:07:45;;;;;;;12.60;4.17;;;;;;;;;;5100056;28;20269;-81
2023/06/27 03:10:11;;;;;;;8.77;3.87;;;;;;;;;;5099825;28;20264;-82
2023/06/27 03:12:37;;;;;;;9.05;3.78;;;;;;;;;;5100221;28;20280;-82
2023/06/27 03:15:03;;;;;;;8.07;3.70;;;;;;;;;;5100364;28;20376;-81
2023/06/27 03:17:29;;;;;;;6.47;3.60;;;;;;;;;;5099173;28;20024;-81
2023/06/27 03:19:55;;;;;;;10.45;3.75;;;;;;;;;;5099746;28;20028;-82
2023/06/27 03:22:20;;;;;;;7.97;4.40;;;;;;;;;;5100090;28;20111;-82
2023/06/27 03:24:45;;;;;;;12.32;4.13;;;;;;;;;;5099523;28;20252;-82
2023/06/27 03:27:10;;;;;;;8.35;3.97;;;;;;;;;;5099360;28;20073;-81
2023/06/27 03:29:35;;;;;;;13.07;4.00;;;;;;;;;;5099880;28;20552;-81
2023/06/27 03:32:01;;;;;;;7.40;3.80;;;;;;;;;;5099385;28;20020;-81
2023/06/27 03:34:26;;;;;;;8.27;3.88;;;;;;;;;;5099340;28;20248;-81
2023/06/27 03:36:51;;;;;;;9.50;3.70;;;;;;;;;;5099716;28;20028;-81
2023/06/27 03:39:16;;;;;;;8.03;3.77;;;;;;;;;;5099466;28;20295;-82
2023/06/27 03:41:42;;;;;;;10.40;3.97;;;;;;;;;;5099401;28;20249;-81
2023/06/27 03:44:08;;;;;;;10.97;3.43;;;;;;;;;;5099364;28;20256;-81
2023/06/27 03:46:33;;;;;;;8.55;3.72;;;;;;;;;;5098525;28;20280;-81
2023/06/27 03:48:58;;;;;;;7.33;3.73;;;;;;;;;;5099323;28;20039;-81
2023/06/27 03:51:24;;;;;;;9.88;3.75;;;;;;;;;;5099145;28;20287;-81
2023/06/27 03:53:49;;;;;;;12.23;3.28;;;;;;;;;;5098982;28;20074;-81
2023/06/27 03:56:15;;;;;;;9.43;3.60;;;;;;;;;;5098855;28;20097;-82
2023/06/27 03:58:40;;;;;;;9.25;3.00;;;;;;;;;;5099303;28;20260;-81
2023/06/27 04:01:06;;;;;;;7.63;3.40;;;;;;;;;;5097234;28;20548;-81
2023/06/27 04:03:31;;;;;;;8.30;3.53;;;;;;;;;;5097429;28;20780;-81
2023/06/27 04:05:56;;;;;;;8.33;2.90;;;;;;;;;;5099392;28;20267;-81
2023/06/27 04:08:21;;;;;;;6.25;2.50;;;;;;;;;;5098506;28;20704;-81
2023/06/27 04:10:47;;;;;;;7.07;2.50;;;;;;;;;;5099087;28;20032;-83
2023/06/27 04:13:12;;;;;;;9.87;3.00;;;;;;;;;;5098839;28;20256;-81
2023/06/27 04:15:39;;;;;;;6.50;2.95;;;;;;;;;;5097347;28;20268;-81
2023/06/27 04:18:04;;;;;;;14.43;3.50;;;;;;;;;;5098572;28;20031;-81
2023/06/27 04:20:30;;;;;;;4.05;2.40;;;;;;;;;;5097467;28;20020;-81
2023/06/27 04:22:55;;;;;;;8.07;2.90;;;;;;;;;;5097062;28;20020;-81
2023/06/27 04:25:20;;;;;;;8.77;2.80;;;;;;;;;;5098056;28;20283;-81
2023/06/27 04:27:45;;;;;;;6.95;2.53;;;;;;;;;;5098468;28;20260;-79
2023/06/27 04:30:11;;;;;;;12.27;2.70;;;;;;;;;;5097977;28;20020;-80
2023/06/27 04:32:37;;;;;;;8.50;2.60;;;;;;;;;;5097377;28;20091;-79
2023/06/27 04:35:03;;;;;;;9.48;2.40;;;;;;;;;;5096626;28;20016;-80
2023/06/27 04:37:29;;;;;;;6.13;2.45;;;;;;;;;;5096433;28;20024;-80
2023/06/27 04:39:54;;;;;;;11.95;2.63;;;;;;;;;;5097537;28;20099;-79
2023/06/27 04:42:19;;;;;;;8.98;2.50;;;;;;;;;;5096588;28;20031;-79
2023/06/27 04:44:44;;;;;;;5.27;2.57;;;;;;;;;;5095841;28;20070;-80
2023/06/27 04:47:10;;;;;;;8.40;2.60;;;;;;;;;;5097689;28;20596;-79
2023/06/27 04:49:35;;;;;;;7.60;2.45;;;;;;;;;;5097564;28;20674;-81
2023/06/27 04:52:00;;;;;;;6.50;2.43;;;;;;;;;;5097324;28;20046;-79
2023/06/27 04:54:25;;;;;;;6.53;2.60;;;;;;;;;;5097006;28;20731;-79
2023/06/27 04:56:51;;;;;;;8.57;2.47;;;;;;;;;;5095696;28;20040;-79
2023/06/27 04:59:17;;;;;;;7.67;2.47;;;;;;;;;;5097177;28;20263;-80
2023/06/27 05:01:42;;;;;;;6.38;2.30;;;;;;;;;;5097654;28;20835;-79
2023/06/27 05:04:07;;;;;;;8.32;2.40;;;;;;;;;;5096833;28;20062;-79
2023/06/27 05:06:33;;;;;;;6.13;2.40;;;;;;;;;;5095416;28;20031;-80
2023/06/27 05:08:59;;;;;;;10.02;2.60;;;;;;;;;;5096973;28;20261;-80
2023/06/27 05:11:24;;;;;;;14.30;2.50;;;;;;;;;;5095929;28;20077;-80
2023/06/27 05:13:50;;;;;;;4.82;2.13;;;;;;;;;;5096891;28;20024;-79
2023/06/27 05:16:15;;;;;;;7.77;2.50;;;;;;;;;;5097259;28;20022;-79
2023/06/27 05:18:41;;;;;;;10.90;2.30;;;;;;;;;;5096526;28;20347;-79
2023/06/27 05:21:07;;;;;;;4.03;2.13;;;;;;;;;;5096892;28;20720;-79
2023/06/27 05:23:32;;;;;;;7.93;2.40;;;;;;;;;;5096652;28;20035;-80
2023/06/27 05:25:58;;;;;;;6.93;2.43;;;;;;;;;;5096702;28;20103;-80
2023/06/27 05:28:23;;;;;;;9.05;2.30;;;;;;;;;;5097010;28;20727;-80
2023/06/27 05:30:48;;;;;;;6.23;2.10;;;;;;;;;;5096967;28;20076;-79
2023/06/27 05:33:13;;;;;;;5.03;2.17;;;;;;;;;;5096694;28;20331;-80
2023/06/27 05:35:38;;;;;;;6.83;2.30;;;;;;;;;;5096294;28;20345;-79
2023/06/27 05:38:04;;;;;;;9.57;2.72;;;;;;;;;;5095775;28;20257;-79
2023/06/27 05:40:29;;;;;;;8.05;2.28;;;;;;;;;;5096037;28;20030;-79
2023/06/27 05:42:55;;;;;;;6.57;2.10;;;;;;;;;;5096021;28;20023;-80
2023/06/27 05:45:20;;;;;;;8.52;2.50;;;;;;;;;;5095576;28;20261;-79
2023/06/27 05:47:45;;;;;;;7.87;2.20;;;;;;;;;;5095928;28;20020;-79
2023/06/27 05:50:10;;;;;;;9.27;2.40;;;;;;;;;;5096141;28;20339;-79
2023/06/27 05:52:36;;;;;;;8.20;2.40;;;;;;;;;;5095552;28;20288;-79
2023/06/27 05:55:01;;;;;;;6.13;2.33;;;;;;;;;;5096035;28;20261;-80
2023/06/27 05:57:26;;;;;;;7.27;2.40;;;;;;;;;;5095691;28;20264;-79
2023/06/27 05:59:52;;;;;;;5.10;2.35;;;;;;;;;;5095886;28;20265;-78
2023/06/27 06:02:17;;;;;;;5.10;2.10;;;;;;;;;;5096920;28;20075;-80
2023/06/27 06:04:43;;;;;;;4.72;2.05;;;;;;;;;;5098473;28;20117;-80
2023/06/27 06:07:08;;;;;;;6.30;1.98;;;;;;;;;;5100059;28;20066;-78
2023/06/27 06:09:33;;;;;;;7.57;2.00;;;;;;;;;;5100179;28;20051;-79
2023/06/27 06:11:58;;;;;;;9.85;2.20;;;;;;;;;;5099650;28;20365;-80
2023/06/27 06:14:24;;;;;;;5.38;2.08;;;;;;;;;;5100511;28;20028;-80
2023/06/27 06:16:49;;;;;;;5.32;1.92;;;;;;;;;;5100221;28;20020;-79
2023/06/27 06:19:15;;;;;;;5.45;1.95;;;;;;;;;;5100507;28;20534;-79
2023/06/27 06:21:40;;;;;;;8.38;2.47;;;;;;;;;;5098817;28;20513;-79
2023/06/27 06:24:08;;;;;;;5.15;2.08;;;;;;;;;;5100676;28;20607;-79
2023/06/27 06:26:34;;;;;;;10.68;2.30;;;;;;;;;;5100591;28;20035;-79
2023/06/27 06:28:59;;;;;;;8.48;2.00;;;;;;;;;;5098070;28;20020;-79
2023/06/27 06:31:24;;;;;;;5.07;1.90;;;;;;;;;;5099536;28;20031;-80
2023/06/27 06:33:49;;;;;;;7.90;1.98;;;;;;;;;;5098368;28;20257;-78
2023/06/27 06:36:15;;;;;;;9.82;2.10;;;;;;;;;;5099150;28;20020;-79
2023/06/27 06:38:40;;;;;;;7.40;2.22;;;;;;;;;;5099494;28;20024;-81
2023/06/27 06:41:06;;;;;;;9.80;1.70;;;;;;;;;;5097748;28;20016;-79
2023/06/27 06:43:31;;;;;;;6.70;1.90;;;;;;;;;;5099300;28;20049;-78
2023/06/27 06:45:56;;;;;;;5.75;1.88;;;;;;;;;;5099309;28;20071;-78
2023/06/27 06:48:22;;;;;;;9.90;2.30;;;;;;;;;;5099140;28;20028;-79
2023/06/27 06:50:49;;;;;;;7.70;1.83;;;;;;;;;;5097688;28;20027;-80
2023/06/27 06:53:15;;;;;;;4.97;1.90;;;;;;;;;;5099102;28;20020;-79
2023/06/27 06:55:40;;;;;;;6.00;1.70;;;;;;;;;;5098932;28;20483;-80
2023/06/27 06:58:05;;;;;;;7.30;1.95;;;;;;;;;;5097583;28;20030;-80
2023/06/27 07:00:30;;;;;;;7.63;1.60;;;;;;;;;;5099035;28;20110;-80
2023/06/27 07:02:57;;;;;;;9.00;1.90;;;;;;;;;;5099391;28;20288;-80
2023/06/27 07:05:22;;;;;;;10.57;1.48;;;;;;;;;;5098722;28;20303;-80
2023/06/27 07:07:47;;;;;;;6.70;1.60;;;;;;;;;;5098853;28;20024;-80
2023/06/27 07:10:13;;;;;;;8.73;1.57;;;;;;;;;;5099289;28;20268;-80
2023/06/27 07:12:38;;;;;;;5.23;1.50;;;;;;;;;;5098809;28;20280;-80
2023/06/27 07:15:04;;;;;;;7.43;1.53;;;;;;;;;;5098571;28;20272;-80
2023/06/27 07:17:29;;;;;;;4.38;1.40;;;;;;;;;;5098779;28;20826;-80
2023/06/27 07:19:54;;;;;;;5.47;1.33;;;;;;;;;;5099193;28;20028;-79
2023/06/27 07:22:21;;;;;;;3.53;1.23;;;;;;;;;;5098788;28;20263;-80
2023/06/27 07:24:46;;;;;;;3.05;1.00;;;;;;;;;;5097085;28;20301;-80
2023/06/27 07:27:11;;;;;;;3.80;1.17;;;;;;;;;;5098660;28;20469;-79
2023/06/27 07:29:37;;;;;;;5.43;1.37;;;;;;;;;;5098999;28;20624;-80
2023/06/27 07:32:02;;;;;;;6.73;1.60;;;;;;;;;;5098497;28;20588;-80
2023/06/27 07:34:27;;;;;;;9.55;1.23;;;;;;;;;;5099220;28;20786;-79
2023/06/27 07:36:52;;;;;;;3.65;1.13;;;;;;;;;;5100115;28;20035;-79
2023/06/27 07:39:18;;;;;;;4.57;1.35;;;;;;;;;;5098465;28;20119;-79
2023/06/27 07:41:43;;;;;;;4.65;1.77;;;;;;;;;;5098368;28;20070;-79
2023/06/27 07:44:08;;;;;;;4.90;1.37;;;;;;;;;;5098041;28;20538;-79
2023/06/27 07:46:33;;;;;;;5.88;1.15;;;;;;;;;;5097573;28;20778;-79
2023/06/27 07:48:59;;;;;;;5.77;1.10;;;;;;;;;;5096787;28;20024;-79
2023/06/27 07:51:28;;;;;;;4.07;1.15;;;;;;;;;;5097910;28;20330;-79
2023/06/27 07:53:56;;;;;;;6.35;1.20;;;;;;;;;;5097302;28;20486;-79
2023/06/27 07:56:21;;;;;;;5.70;1.00;;;;;;;;;;5096656;28;20039;-79
2023/06/27 07:58:47;;;;;;;2.50;1.20;;;;;;;;;;5097692;28;20391;-80
2023/06/27 08:01:12;;;;;;;3.05;1.00;;;;;;;;;;5097926;28;20162;-80
2023/06/27 08:03:37;;;;;;;4.57;1.30;;;;;;;;;;5100025;28;20028;-79
2023/06/27 08:06:03;;;;;;;5.90;1.10;;;;;;;;;;5096364;28;20279;-79
2023/06/27 08:08:29;;;;;;;3.53;1.10;;;;;;;;;;5097700;28;20635;-79
2023/06/27 08:10:56;;;;;;;4.53;1.33;;;;;;;;;;5095649;28;20119;-78
2023/06/27 08:13:22;;;;;;;5.75;1.08;;;;;;;;;;5097525;28;20051;-78
2023/06/27 08:15:47;;;;;;;4.38;1.02;;;;;;;;;;5097045;28;20491;-78
2023/06/27 08:18:12;;;;;;;5.83;1.10;;;;;;;;;;5097133;28;20024;-79
2023/06/27 08:20:37;;;;;;;5.30;1.00;;;;;;;;;;5097032;28;20329;-78
2023/06/27 08:23:02;;;;;;;3.83;0.95;;;;;;;;;;5097538;28;20252;-78
2023/06/27 08:25:28;;;;;;;4.37;1.00;;;;;;;;;;5095946;28;20028;-78
2023/06/27 08:27:53;;;;;;;5.20;1.10;;;;;;;;;;5097957;28;20260;-79
2023/06/27 08:30:19;;;;;;;2.78;1.02;;;;;;;;;;5097254;28;20256;-78
2023/06/27 08:32:44;;;;;;;5.60;1.25;;;;;;;;;;5096284;28;20020;-78
2023/06/27 08:35:10;;;;;;;4.03;1.07;;;;;;;;;;5097047;28;20051;-79
2023/06/27 08:37:35;;;;;;;4.17;1.50;;;;;;;;;;5096319;28;20256;-78
2023/06/27 08:40:00;;;;;;;6.43;1.10;;;;;;;;;;5096539;28;20263;-79
2023/06/27 08:42:27;;;;;;;2.55;0.93;;;;;;;;;;5096362;28;20256;-79
2023/06/27 08:44:53;;;;;;;3.38;1.15;;;;;;;;;;5095223;28;20387;-78
2023/06/27 08:47:21;;;;;;;4.13;1.20;;;;;;;;;;5094841;28;20034;-78
2023/06/27 08:49:50;;;;;;;4.82;1.45;;;;;;;;;;5096687;28;20446;-78
2023/06/27 08:52:18;;;;;;;6.32;1.10;;;;;;;;;;5096457;28;20046;-78
2023/06/27 08:54:51;;;;;;;5.45;1.42;;;;;;;;;;5096281;28;20059;-78
2023/06/27 08:57:17;;;;;;;6.60;1.40;;;;;;;;;;5096421;28;20449;-79
2023/06/27 08:59:46;;;;;;;5.82;1.10;;;;;;;;;;5096491;28;20536;-79
2023/06/27 09:02:12;;;;;;;5.82;1.10;;;;;;;;;;5095784;28;20537;-79
2023/06/27 09:04:41;;;;;;;7.60;1.15;;;;;;;;;;5095743;28;20141;-78
2023/06/27 09:07:06;;;;;;;2.45;0.93;;;;;;;;;;5094362;28;20121;-78
2023/06/27 09:09:34;;;;;;;4.30;1.15;;;;;;;;;;5096319;28;20028;-79
2023/06/27 09:12:02;;;;;;;3.63;1.17;;;;;;;;;;5095960;28;20479;-79
2023/06/27 09:14:28;;;;;;;3.00;1.13;;;;;;;;;;5096109;28;20149;-78
2023/06/27 09:16:53;;;;;;;2.35;0.98;;;;;;;;;;5095793;28;20032;-78
2023/06/27 09:19:21;;;;;;;3.33;1.20;;;;;;;;;;5095544;28;20034;-78
2023/06/27 09:21:50;;;;;;;3.30;1.10;;;;;;;;;;5096013;28;20019;-78
2023/06/27 09:24:22;;;;;;;6.60;1.25;;;;;;;;;;5093972;28;20048;-78
2023/06/27 09:26:47;;;;;;;2.80;1.00;;;;;;;;;;5096093;28;20024;-78
2023/06/27 09:29:12;;;;;;;3.90;1.00;;;;;;;;;;5095103;28;20048;-79
2023/06/27 09:31:37;;;;;;;1.40;1.00;;;;;;;;;;5095054;28;20330;-78
2023/06/27 09:34:07;;;;;;;2.90;1.20;;;;;;;;;;5095424;28;20365;-79
2023/06/27 09:36:34;;;;;;;2.40;0.90;;;;;;;;;;5095098;28;20030;-78
2023/06/27 09:39:10;;;;;;;3.38;0.93;;;;;;;;;;5095248;28;20027;-78
2023/06/27 09:41:46;;;;;;;4.50;1.30;;;;;;;;;;5095133;28;20441;-78
2023/06/27 09:44:16;;;;;;;3.88;1.35;;;;;;;;;;5095043;28;20122;-78
2023/06/27 09:46:43;;;;;;;3.60;1.20;;;;;;;;;;5094516;28;20028;-78
2023/06/27 09:49:09;;;;;;;5.63;1.17;;;;;;;;;;5095340;28;20097;-79
2023/06/27 09:51:34;;;;;;;3.85;1.17;;;;;;;;;;5094065;28;20479;-78
2023/06/27 09:53:59;;;;;;;3.22;0.95;;;;;;;;;;5094722;28;20422;-78
2023/06/27 09:56:30;;;;;;;7.00;1.00;;;;;;;;;;5094911;28;20028;-78
2023/06/27 09:58:56;;;;;;;3.65;0.98;;;;;;;;;;5094465;28;20023;-78
2023/06/27 10:01:24;;;;;;;4.65;1.00;;;;;;;;;;5094282;28;20391;-79
2023/06/27 10:03:49;;;;;;;2.42;0.98;;;;;;;;;;5094412;28;20044;-79
2023/06/27 10:06:14;;;;;;;5.43;1.20;;;;;;;;;;5093084;28;20521;-79
2023/06/27 10:08:40;;;;;;;4.13;1.27;;;;;;;;;;5092458;28;20779;-78
2023/06/27 10:11:05;;;;;;;5.72;1.30;;;;;;;;;;5094005;28;20070;-78
2023/06/27 10:13:30;;;;;;;1.97;0.87;;;;;;;;;;5093788;28;20106;-78
2023/06/27 10:15:56;;;;;;;5.15;1.30;;;;;;;;;;5092730;28;20296;-78
2023/06/27 10:18:21;;;;;;;5.75;0.90;;;;;;;;;;5092593;28;20493;-78
2023/06/27 10:20:47;;;;;;;4.53;1.02;;;;;;;;;;5092523;28;20081;-77
2023/06/27 10:23:14;;;;;;;2.15;1.10;;;;;;;;;;5092608;28;20062;-78
2023/06/27 10:25:39;;;;;;;2.80;1.00;;;;;;;;;;5093717;28;20404;-78
2023/06/27 10:28:08;;;;;;;3.30;1.10;;;;;;;;;;5093574;28;20028;-78
2023/06/27 10:30:44;;;;;;;5.43;1.30;;;;;;;;;;5093985;28;20077;-78
2023/06/27 10:33:19;;;;;;;3.58;0.80;;;;;;;;;;5092328;28;20020;-78
2023/06/27 10:35:55;;;;;;;5.75;0.90;;;;;;;;;;5094000;28;20050;-78
2023/06/27 10:38:21;;;;;;;3.72;1.00;;;;;;;;;;5093756;28;20056;-78
2023/06/27 10:41:09;;;;;;;2.90;0.90;;;;;;;;;;5093245;28;20031;-78
2023/06/27 10:43:38;;;;;;;2.60;0.90;;;;;;;;;;5092868;28;20027;-78
2023/06/27 10:46:11;;;;;;;3.58;0.80;;;;;;;;;;5092310;28;20031;-78
2023/06/27 10:48:49;;;;;;;3.55;0.90;;;;;;;;;;5094800;28;20020;-78
2023/06/27 10:51:16;;;;;;;3.33;0.93;;;;;;;;;;5098479;28;20436;-78
2023/06/27 10:53:43;;;;;;;3.75;1.00;;;;;;;;;;5096306;28;20020;-78
2023/06/27 10:56:15;;;;;;;2.30;0.85;;;;;;;;;;5097464;28;20115;-78
2023/06/27 10:58:45;;;;;;;1.85;0.70;;;;;;;;;;5097927;28;20059;-79
2023/06/27 11:01:13;;;;;;;2.45;0.90;;;;;;;;;;5098940;28;20024;-78
2023/06/27 11:03:43;;;;;;;1.83;0.70;;;;;;;;;;5097209;28;20058;-78
2023/06/27 11:06:08;;;;;;;3.80;0.98;;;;;;;;;;5097871;28;20020;-78
2023/06/27 11:08:34;;;;;;;2.13;0.75;;;;;;;;;;5097707;28;20093;-79
2023/06/27 11:10:59;;;;;;;2.67;1.02;;;;;;;;;;5096286;28;20028;-77
2023/06/27 11:13:27;;;;;;;3.70;0.87;;;;;;;;;;5096827;28;20097;-78
2023/06/27 11:15:53;;;;;;;5.15;0.95;;;;;;;;;;5096117;28;20249;-76
2023/06/27 11:18:21;;;;;;;1.98;1.02;;;;;;;;;;5096006;28;20030;-78
2023/06/27 11:20:46;;;;;;;2.65;1.00;;;;;;;;;;5098088;28;20497;-78
2023/06/27 11:23:12;;;;;;;2.40;0.90;;;;;;;;;;5098087;28;20028;-78
2023/06/27 11:25:42;;;;;;;4.72;1.23;;;;;;;;;;5097577;28;20066;-78
2023/06/27 11:28:07;;;;;;;4.82;1.00;;;;;;;;;;5096274;28;20032;-78
2023/06/27 11:30:33;;;;;;;3.35;1.10;;;;;;;;;;5097563;28;20505;-78
2023/06/27 11:32:59;;;;;;;5.25;0.90;;;;;;;;;;5096083;28;20031;-78
2023/06/27 11:35:25;;;;;;;4.20;0.80;;;;;;;;;;5097875;28;20433;-78
2023/06/27 11:37:54;;;;;;;1.83;0.80;;;;;;;;;;5096474;28;20020;-79
2023/06/27 11:40:20;;;;;;;1.08;0.70;;;;;;;;;;5097066;28;20031;-78
2023/06/27 11:42:45;;;;;;;3.38;0.90;;;;;;;;;;5097607;28;20012;-78
2023/06/27 11:45:11;;;;;;;2.70;1.10;;;;;;;;;;5098508;28;20027;-78
2023/06/27 11:47:37;;;;;;;2.80;0.80;;;;;;;;;;5097864;28;20623;-78
2023/06/27 11:50:07;;;;;;;2.95;0.70;;;;;;;;;;5096600;28;20016;-78
2023/06/27 11:52:34;;;;;;;3.60;0.80;;;;;;;;;;5096872;28;20024;-77
2023/06/27 11:55:01;;;;;;;1.77;0.70;;;;;;;;;;5097218;28;20036;-80
2023/06/27 11:57:51;;;;;;;2.33;1.00;;;;;;;;;;5096428;28;20032;-77
2023/06/27 12:00:19;;;;;;;1.50;0.70;;;;;;;;;;5096075;28;20489;-78
2023/06/27 12:02:52;;;;;;;2.50;0.90;;;;;;;;;;5095394;28;20020;-77
2023/06/27 12:05:20;;;;;;;1.88;0.90;;;;;;;;;;5094582;28;20112;-78
2023/06/27 12:07:55;;;;;;;3.55;0.90;;;;;;;;;;5097161;28;20032;-78
2023/06/27 12:10:21;;;;;;;2.08;0.90;;;;;;;;;;5096289;28;20020;-78
2023/06/27 12:12:48;;;;;;;5.55;0.95;;;;;;;;;;5096002;28;20027;-79
2023/06/27 12:15:14;;;;;;;5.85;1.20;;;;;;;;;;5097324;28;20020;-78
2023/06/27 12:17:55;;;;;;;2.45;0.90;;;;;;;;;;5096586;28;20020;-78
2023/06/27 12:20:22;;;;;;;2.75;0.90;;;;;;;;;;5096886;28;20093;-78
2023/06/27 12:22:47;;;;;;;2.70;0.90;;;;;;;;;;5094993;28;20020;-77
2023/06/27 12:25:12;;;;;;;3.67;1.00;;;;;;;;;;5096468;28;20028;-78
2023/06/27 12:27:37;;;;;;;3.97;0.90;;;;;;;;;;5096728;28;20395;-78
2023/06/27 12:30:05;;;;;;;2.53;0.90;;;;;;;;;;5096251;28;20031;-78
2023/06/27 12:32:30;;;;;;;2.83;1.10;;;;;;;;;;5096655;28;20315;-78
2023/06/27 12:34:55;;;;;;;2.60;0.90;;;;;;;;;;5096484;28;20429;-78
2023/06/27 12:37:22;;;;;;;3.00;0.90;;;;;;;;;;5096507;28;20746;-78
2023/06/27 12:39:48;;;;;;;1.60;0.80;;;;;;;;;;5096654;28;20314;-78
2023/06/27 12:42:13;;;;;;;3.80;1.07;;;;;;;;;;5096090;28;20028;-78
2023/06/27 12:44:38;;;;;;;2.57;1.13;;;;;;;;;;5096921;28;20264;-78
2023/06/27 12:47:04;;;;;;;6.60;1.07;;;;;;;;;;5096390;28;20256;-79
2023/06/27 12:49:29;;;;;;;1.98;0.82;;;;;;;;;;5096420;28;20291;-78
2023/06/27 12:51:54;;;;;;;0.83;0.70;;;;;;;;;;5096801;28;20028;-78
2023/06/27 12:54:19;;;;;;;1.60;0.90;;;;;;;;;;5096388;28;20256;-77
2023/06/27 12:56:44;;;;;;;1.37;0.80;;;;;;;;;;5096126;28;20268;-78
2023/06/27 12:59:10;;;;;;;1.47;0.70;;;;;;;;;;5095955;28;20314;-78
2023/06/27 13:01:54;;;;;;;1.77;0.98;;;;;;;;;;5096591;28;20260;-79
2023/06/27 13:04:20;;;;;;;2.13;0.90;;;;;;;;;;5096110;28;20383;-78
2023/06/27 13:06:45;;;;;;;3.05;0.93;;;;;;;;;;5096219;28;20023;-78
2023/06/27 13:09:11;;;;;;;4.18;0.98;;;;;;;;;;5096084;28;20032;-78
2023/06/27 13:11:36;;;;;;;5.03;0.70;;;;;;;;;;5095600;28;20126;-78
2023/06/27 13:14:01;;;;;;;2.83;0.90;;;;;;;;;;5094827;28;20770;-78
2023/06/27 13:16:27;;;;;;;1.83;0.80;;;;;;;;;;5094742;28;20295;-78
2023/06/27 13:18:52;;;;;;;4.18;0.80;;;;;;;;;;5095690;28;20050;-78
2023/06/27 13:21:18;;;;;;;1.38;0.70;;;;;;;;;;5095814;28;20404;-78
2023/06/27 13:23:47;;;;;;;2.38;1.00;;;;;;;;;;5095800;28;20031;-78
2023/06/27 13:26:13;;;;;;;1.40;0.98;;;;;;;;;;5096055;28;20073;-78
2023/06/27 13:28:38;;;;;;;6.07;0.90;;;;;;;;;;5095409;28;20023;-78
2023/06/27 13:31:05;;;;;;;2.30;0.80;;;;;;;;;;5094331;28;20069;-78
2023/06/27 13:33:30;;;;;;;1.70;0.90;;;;;;;;;;5095561;28;20390;-78
2023/06/27 13:35:56;;;;;;;2.90;0.80;;;;;;;;;;5094592;28;20024;-78
2023/06/27 13:38:21;;;;;;;5.68;1.08;;;;;;;;;;5095616;28;20433;-78
2023/06/27 13:40:46;;;;;;;3.03;0.93;;;;;;;;;;5095550;28;20103;-78
2023/06/27 13:43:11;;;;;;;1.58;0.70;;;;;;;;;;5095675;28;20248;-78
2023/06/27 13:45:37;;;;;;;3.28;0.77;;;;;;;;;;5095944;28;20146;-78
2023/06/27 13:48:02;;;;;;;4.37;1.03;;;;;;;;;;5095728;28;20032;-78
2023/06/27 13:50:27;;;;;;;5.22;1.20;;;;;;;;;;5094452;28;20253;-78
2023/06/27 13:52:52;;;;;;;4.57;1.20;;;;;;;;;;5095282;28;20509;-77
2023/06/27 13:55:17;;;;;;;5.93;1.10;;;;;;;;;;5093084;28;20767;-77
2023/06/27 13:57:43;;;;;;;1.73;0.80;;;;;;;;;;5093482;28;20822;-77
2023/06/27 14:00:09;;;;;;;3.13;0.90;;;;;;;;;;5093590;28;20752;-77
2023/06/27 14:02:34;;;;;;;4.47;1.10;;;;;;;;;;5094807;28;20260;-77
2023/06/27 14:05:00;;;;;;;4.10;1.20;;;;;;;;;;5093750;28;20024;-78
2023/06/27 14:07:25;;;;;;;3.40;1.30;;;;;;;;;;5093215;28;20268;-78
2023/06/27 14:09:50;;;;;;;2.00;1.00;;;;;;;;;;5096097;28;20035;-78
2023/06/27 14:12:17;;;;;;;1.93;1.13;;;;;;;;;;5095057;28;20128;-77
2023/06/27 14:14:44;;;;;;;2.30;1.20;;;;;;;;;;5095092;28;20248;-78
2023/06/27 14:17:09;;;;;;;4.32;1.20;;;;;;;;;;5095738;28;20024;-79
2023/06/27 14:19:34;;;;;;;3.30;1.10;;;;;;;;;;5095757;28;20028;-78
2023/06/27 14:21:59;;;;;;;2.23;1.17;;;;;;;;;;5094460;28;20027;-78
2023/06/27 14:24:24;;;;;;;1.80;0.87;;;;;;;;;;5095996;28;20261;-78
2023/06/27 14:26:50;;;;;;;4.27;0.83;;;;;;;;;;5098400;28;20261;-78
2023/06/27 14:29:15;;;;;;;2.97;0.90;;;;;;;;;;5098320;28;20253;-78
2023/06/27 14:31:40;;;;;;;2.42;1.17;;;;;;;;;;5099672;28;20028;-78
2023/06/27 14:34:05;;;;;;;0.77;0.73;;;;;;;;;;5099507;28;20035;-78
2023/06/27 14:36:32;;;;;;;1.07;0.77;;;;;;;;;;5099627;28;20292;-78